sensor_id;sensor_type;location;lat;lon;timestamp;pressure;altitude;pressure_sealevel;temperature;humidity
27864;BME280;15980;51.092;13.916;2023-03-31T00:03:38;97871.19;;;10.74;78.38
27864;BME280;15980;51.092;13.916;2023-03-31T00:13:38;97861.53;;;10.61;79.14
27864;BME280;15980;51.092;13.916;2023-03-31T00:23:39;97850.13;;;10.59;78.90
27864;BME280;15980;51.092;13.916;2023-03-31T00:33:40;97850.63;;;10.45;79.60
27864;BME280;15980;51.092;13.916;2023-03-31T00:43:40;97845.22;;;10.49;79.71
27864;BME280;15980;51.092;13.916;2023-03-31T00:53:41;97818.59;;;10.49;79.20
27864;BME280;15980;51.092;13.916;2023-03-31T01:03:42;97806.03;;;10.48;79.62
27864;BME280;15980;51.092;13.916;2023-03-31T01:13:42;97781.22;;;10.41;80.09
27864;BME280;15980;51.092;13.916;2023-03-31T01:54:43;97731.09;;;10.05;82.11
27864;BME280;15980;51.092;13.916;2023-03-31T02:04:54;97714.78;;;9.93;81.53
27864;BME280;15980;51.092;13.916;2023-03-31T02:14:56;97703.31;;;9.88;81.85
27864;BME280;15980;51.092;13.916;2023-03-31T02:25:00;97695.31;;;10.18;80.61
27864;BME280;15980;51.092;13.916;2023-03-31T02:35:02;97688.16;;;9.94;81.51
27864;BME280;15980;51.092;13.916;2023-03-31T02:45:04;97669.66;;;9.68;82.20
27864;BME280;15980;51.092;13.916;2023-03-31T03:16:06;97649.16;;;8.92;85.65
27864;BME280;15980;51.092;13.916;2023-03-31T03:26:09;97645.53;;;8.88;85.94
27864;BME280;15980;51.092;13.916;2023-03-31T03:36:10;97632.09;;;8.98;85.73
27864;BME280;15980;51.092;13.916;2023-03-31T03:46:11;97621.50;;;9.12;85.19
27864;BME280;15980;51.092;13.916;2023-03-31T03:56:11;97613.25;;;9.28;85.14
27864;BME280;15980;51.092;13.916;2023-03-31T04:06:11;97591.63;;;9.42;84.52
27864;BME280;15980;51.092;13.916;2023-03-31T04:16:12;97577.97;;;9.62;84.06
27864;BME280;15980;51.092;13.916;2023-03-31T04:26:15;97573.47;;;9.73;83.08
27864;BME280;15980;51.092;13.916;2023-03-31T04:36:16;97563.88;;;9.83;82.57
27864;BME280;15980;51.092;13.916;2023-03-31T04:46:16;97545.94;;;9.85;82.26
27864;BME280;15980;51.092;13.916;2023-03-31T04:56:17;97526.63;;;9.78;81.94
27864;BME280;15980;51.092;13.916;2023-03-31T05:06:17;97516.69;;;9.93;82.07
27864;BME280;15980;51.092;13.916;2023-03-31T05:16:17;97507.84;;;10.22;80.75
27864;BME280;15980;51.092;13.916;2023-03-31T05:26:17;97492.72;;;10.32;80.38
27864;BME280;15980;51.092;13.916;2023-03-31T05:36:18;97482.31;;;10.41;79.72
27864;BME280;15980;51.092;13.916;2023-03-31T05:46:18;97462.56;;;10.32;80.27
27864;BME280;15980;51.092;13.916;2023-03-31T05:56:18;97440.63;;;10.32;80.30
27864;BME280;15980;51.092;13.916;2023-03-31T06:06:19;97420.66;;;10.88;79.14
27864;BME280;15980;51.092;13.916;2023-03-31T06:16:19;97407.44;;;11.30;77.71
27864;BME280;15980;51.092;13.916;2023-03-31T06:26:19;97405.22;;;11.84;75.85
27864;BME280;15980;51.092;13.916;2023-03-31T06:36:20;97384.22;;;12.13;74.54
27864;BME280;15980;51.092;13.916;2023-03-31T06:46:21;97378.16;;;12.44;72.95
27864;BME280;15980;51.092;13.916;2023-03-31T06:56:21;97376.00;;;12.89;72.89
27864;BME280;15980;51.092;13.916;2023-03-31T07:06:21;97369.09;;;13.31;71.51
27864;BME280;15980;51.092;13.916;2023-03-31T07:16:22;97336.06;;;14.02;68.61
27864;BME280;15980;51.092;13.916;2023-03-31T07:26:22;97352.97;;;14.25;67.59
27864;BME280;15980;51.092;13.916;2023-03-31T07:36:22;97334.88;;;14.10;68.26
27864;BME280;15980;51.092;13.916;2023-03-31T07:46:25;97318.28;;;14.45;67.18
27864;BME280;15980;51.092;13.916;2023-03-31T07:56:26;97296.84;;;14.82;65.69
27864;BME280;15980;51.092;13.916;2023-03-31T08:06:26;97288.63;;;15.33;63.88
27864;BME280;15980;51.092;13.916;2023-03-31T08:16:27;97269.41;;;15.71;61.35
27864;BME280;15980;51.092;13.916;2023-03-31T08:26:27;97275.53;;;15.93;60.99
27864;BME280;15980;51.092;13.916;2023-03-31T08:36:27;97270.16;;;15.75;61.34
27864;BME280;15980;51.092;13.916;2023-03-31T08:46:30;97272.53;;;15.21;62.33
27864;BME280;15980;51.092;13.916;2023-03-31T08:56:34;97256.59;;;14.84;68.42
27864;BME280;15980;51.092;13.916;2023-03-31T09:06:41;97244.47;;;14.60;72.21
27864;BME280;15980;51.092;13.916;2023-03-31T09:16:54;97228.47;;;14.12;74.64
27864;BME280;15980;51.092;13.916;2023-03-31T09:27:01;97231.34;;;13.59;75.83
27864;BME280;15980;51.092;13.916;2023-03-31T09:37:02;97198.56;;;14.04;75.84
27864;BME280;15980;51.092;13.916;2023-03-31T09:47:03;97185.56;;;14.04;75.56
27864;BME280;15980;51.092;13.916;2023-03-31T09:57:38;97166.59;;;14.17;75.75
27864;BME280;15980;51.092;13.916;2023-03-31T10:07:31;97162.41;;;13.80;74.37
27864;BME280;15980;51.092;13.916;2023-03-31T10:17:34;97150.69;;;13.48;74.00
27864;BME280;15980;51.092;13.916;2023-03-31T10:27:40;97142.03;;;13.14;77.12
27864;BME280;15980;51.092;13.916;2023-03-31T10:37:40;97114.09;;;12.98;78.16
27864;BME280;15980;51.092;13.916;2023-03-31T10:47:41;97107.41;;;12.56;79.64
27864;BME280;15980;51.092;13.916;2023-03-31T11:08:16;97076.34;;;12.34;75.58
27864;BME280;15980;51.092;13.916;2023-03-31T11:18:35;97076.78;;;12.61;77.05
27864;BME280;15980;51.092;13.916;2023-03-31T11:39:15;97048.06;;;12.73;76.54
27864;BME280;15980;51.092;13.916;2023-03-31T11:49:25;97032.28;;;12.98;77.54
27864;BME280;15980;51.092;13.916;2023-03-31T11:59:28;97005.63;;;12.60;78.23
27864;BME280;15980;51.092;13.916;2023-03-31T12:09:50;97002.88;;;12.45;78.95
27864;BME280;15980;51.092;13.916;2023-03-31T12:19:54;96987.13;;;12.07;80.63
27864;BME280;15980;51.092;13.916;2023-03-31T12:29:59;96979.28;;;11.87;80.14
27864;BME280;15980;51.092;13.916;2023-03-31T13:00:25;96919.59;;;12.23;83.34
27864;BME280;15980;51.092;13.916;2023-03-31T13:10:28;96900.75;;;11.83;84.09
27864;BME280;15980;51.092;13.916;2023-03-31T13:21:01;96889.69;;;11.51;85.99
27864;BME280;15980;51.092;13.916;2023-03-31T13:31:04;96856.75;;;11.58;88.30
27864;BME280;15980;51.092;13.916;2023-03-31T13:41:18;96841.44;;;11.68;88.27
27864;BME280;15980;51.092;13.916;2023-03-31T14:01:48;96814.50;;;12.82;84.13
27864;BME280;15980;51.092;13.916;2023-03-31T14:11:49;96831.22;;;12.25;80.85
27864;BME280;15980;51.092;13.916;2023-03-31T14:42:38;96823.66;;;12.50;80.57
27864;BME280;15980;51.092;13.916;2023-03-31T14:52:38;96810.28;;;12.60;79.23
27864;BME280;15980;51.092;13.916;2023-03-31T15:02:44;96801.03;;;12.98;80.07
27864;BME280;15980;51.092;13.916;2023-03-31T15:12:46;96800.69;;;12.93;79.16
27864;BME280;15980;51.092;13.916;2023-03-31T15:22:47;96805.06;;;12.83;77.64
27864;BME280;15980;51.092;13.916;2023-03-31T15:32:47;96806.38;;;12.61;77.07
27864;BME280;15980;51.092;13.916;2023-03-31T15:42:49;96795.13;;;13.07;75.03
27864;BME280;15980;51.092;13.916;2023-03-31T15:52:53;96786.84;;;13.10;74.82
27864;BME280;15980;51.092;13.916;2023-03-31T16:02:54;96780.03;;;12.60;76.63
27864;BME280;15980;51.092;13.916;2023-03-31T16:13:01;96770.19;;;12.55;78.16
27864;BME280;15980;51.092;13.916;2023-03-31T16:23:12;96749.03;;;12.45;78.95
27864;BME280;15980;51.092;13.916;2023-03-31T16:33:16;96758.25;;;11.14;100.00
27864;BME280;15980;51.092;13.916;2023-03-31T16:53:24;96793.84;;;10.82;94.10
27864;BME280;15980;51.092;13.916;2023-03-31T17:03:25;96794.25;;;10.84;96.43
27864;BME280;15980;51.092;13.916;2023-03-31T17:13:26;96814.19;;;10.66;95.30
27864;BME280;15980;51.092;13.916;2023-03-31T17:23:26;96814.06;;;10.38;95.47
27864;BME280;15980;51.092;13.916;2023-03-31T17:33:27;96807.63;;;10.09;95.52
27864;BME280;15980;51.092;13.916;2023-03-31T17:43:27;96830.03;;;9.67;95.68
27864;BME280;15980;51.092;13.916;2023-03-31T17:53:27;96827.47;;;9.40;95.89
27864;BME280;15980;51.092;13.916;2023-03-31T18:03:28;96829.22;;;9.19;95.46
27864;BME280;15980;51.092;13.916;2023-03-31T18:13:28;96844.91;;;8.88;96.05
27864;BME280;15980;51.092;13.916;2023-03-31T18:23:28;96852.69;;;8.82;95.94
27864;BME280;15980;51.092;13.916;2023-03-31T18:33:28;96862.31;;;9.06;96.51
27864;BME280;15980;51.092;13.916;2023-03-31T18:43:29;96864.13;;;9.32;96.72
27864;BME280;15980;51.092;13.916;2023-03-31T18:53:29;96868.69;;;9.58;92.29
27864;BME280;15980;51.092;13.916;2023-03-31T19:03:29;96862.94;;;9.74;90.10
27864;BME280;15980;51.092;13.916;2023-03-31T19:13:30;96874.75;;;9.82;89.03
27864;BME280;15980;51.092;13.916;2023-03-31T19:23:31;96877.88;;;9.80;87.59
27864;BME280;15980;51.092;13.916;2023-03-31T19:33:31;96883.41;;;9.91;85.22
27864;BME280;15980;51.092;13.916;2023-03-31T19:43:32;96879.97;;;9.97;83.98
27864;BME280;15980;51.092;13.916;2023-03-31T19:53:36;96882.75;;;10.04;83.18
27864;BME280;15980;51.092;13.916;2023-03-31T20:03:36;96869.09;;;10.08;83.04
27864;BME280;15980;51.092;13.916;2023-03-31T20:13:37;96875.75;;;10.11;82.92
27864;BME280;15980;51.092;13.916;2023-03-31T20:23:38;96883.94;;;10.07;83.96
27864;BME280;15980;51.092;13.916;2023-03-31T20:33:39;96870.22;;;10.03;83.91
27864;BME280;15980;51.092;13.916;2023-03-31T20:43:40;96873.72;;;10.00;83.83
27864;BME280;15980;51.092;13.916;2023-03-31T20:53:43;96890.47;;;9.92;85.96
27864;BME280;15980;51.092;13.916;2023-03-31T21:03:43;96895.47;;;9.79;87.14
27864;BME280;15980;51.092;13.916;2023-03-31T21:13:43;96887.53;;;9.67;89.04
27864;BME280;15980;51.092;13.916;2023-03-31T21:23:44;96885.94;;;9.62;90.41
27864;BME280;15980;51.092;13.916;2023-03-31T21:33:45;96893.72;;;9.57;91.34
27864;BME280;15980;51.092;13.916;2023-03-31T21:43:46;96891.75;;;9.57;91.41
27864;BME280;15980;51.092;13.916;2023-03-31T21:53:47;96896.06;;;9.58;91.49
27864;BME280;15980;51.092;13.916;2023-03-31T22:03:48;96892.19;;;9.63;91.62
27864;BME280;15980;51.092;13.916;2023-03-31T22:13:48;96889.44;;;9.59;91.81
27864;BME280;15980;51.092;13.916;2023-03-31T22:23:50;96898.06;;;9.61;91.58
27864;BME280;15980;51.092;13.916;2023-03-31T22:33:51;96881.59;;;9.58;91.18
27864;BME280;15980;51.092;13.916;2023-03-31T22:43:51;96888.25;;;9.57;91.23
27864;BME280;15980;51.092;13.916;2023-03-31T22:53:53;96882.38;;;9.58;90.74
27864;BME280;15980;51.092;13.916;2023-03-31T23:03:53;96878.44;;;9.56;89.94
27864;BME280;15980;51.092;13.916;2023-03-31T23:13:53;96875.28;;;9.54;89.23
27864;BME280;15980;51.092;13.916;2023-03-31T23:23:58;96885.50;;;9.57;88.47
27864;BME280;15980;51.092;13.916;2023-03-31T23:33:59;96878.44;;;9.56;88.66
27864;BME280;15980;51.092;13.916;2023-03-31T23:44:00;96877.31;;;9.60;88.28
27864;BME280;15980;51.092;13.916;2023-03-31T23:54:00;96876.91;;;9.58;88.80
